Observations for STAVERTON PRIVATE, United Kingdom (EGBJ)

EGBJ 171750Z 23003KT 9999 FEW035 08/04 Q1021
EGBJ 171720Z 23004KT 9999 FEW035 08/04 Q1021
EGBJ 171650Z 24006KT 9999 FEW035 09/04 Q1021
EGBJ 171620Z 25005KT 220V280 9999 FEW030 10/04 Q1021
EGBJ 171550Z 24005KT 9999 FEW030 10/04 Q1021
EGBJ 171520Z 25005KT 230V290 9999 FEW030 10/04 Q1020
EGBJ 171450Z 25006KT 230V290 9999 FEW026 10/05 Q1021
EGBJ 171420Z 24007KT 9999 FEW018 SCT022 10/06 Q1021 
EGBJ 171350Z 25007KT 9999 FEW018 SCT020 09/05 Q1021 
EGBJ 171320Z 25008KT 230V290 9999 SCT030 09/05 Q1021
EGBJ 171250Z 25008KT 230V290 9999 FEW025 09/05 Q1021
EGBJ 171220Z 25009KT 230V290 9999 FEW028 09/05 Q1021
EGBJ 171150Z 26007KT 220V290 9999 FEW028 09/04 Q1021
EGBJ 171120Z 25008KT 9999 FEW040 09/04 Q1021
EGBJ 171050Z 23004KT 9999 FEW045 08/04 Q1021
EGBJ 171020Z 24005KT 9999 FEW045 08/04 Q1021
EGBJ 170950Z 23003KT 9999 FEW040 07/04 Q1021
EGBJ 170920Z 23003KT 9999 SCT045 07/04 Q1020
EGBJ 170850Z 24004KT 210V270 9999 SCT045 06/04 Q1020
EGBJ 170820Z 24002KT 9000 NSC 06/04 Q1020